Time;durP1;ratioP1;P1;durP2;ratioP2;P2;SDS_P1;SDS_P2;PMS_P1;PMS_P2;Temp;Humidity;BMP_temperature;BMP_pressure;BME280_temperature;BME280_humidity;BME280_pressure;Samples;Min_cycle;Max_cycle;Signal;HPM_P1;HPM_P2
2022/10/08 00:01:09;;;;;;;1.33;0.00;;;12.90;99.90;;;;;;5095557;28;20081;-77
2022/10/08 00:03:37;;;;;;;0.73;0.00;;;12.90;99.90;;;;;;5077317;28;20047;-76
2022/10/08 00:06:24;;;;;;;1.38;0.03;;;12.80;99.90;;;;;;5095793;28;20027;-77
2022/10/08 00:09:02;;;;;;;1.27;0.00;;;12.70;99.90;;;;;;5077171;28;20369;-76
2022/10/08 00:11:35;;;;;;;0.80;0.27;;;12.80;99.90;;;;;;5076814;28;20020;-77
2022/10/08 00:14:01;;;;;;;2.22;0.25;;;12.80;99.90;;;;;;5076892;28;20708;-76
2022/10/08 00:16:29;;;;;;;6.32;0.38;;;12.80;99.90;;;;;;5076861;28;20118;-76
2022/10/08 00:19:09;;;;;;;1.17;0.25;;;12.80;99.90;;;;;;5095003;28;20077;-77
2022/10/08 00:21:37;;;;;;;5.32;0.70;;;12.70;99.90;;;;;;5095051;28;20062;-76
2022/10/08 00:24:05;;;;;;;1.63;0.07;;;12.70;99.90;;;;;;5076705;28;20020;-76
2022/10/08 00:26:33;;;;;;;0.80;0.00;;;12.70;99.90;;;;;;5076636;28;20267;-76
2022/10/08 00:29:02;;;;;;;1.30;0.00;;;12.60;99.90;;;;;;5094722;28;20440;-77
2022/10/08 00:31:33;;;;;;;1.42;0.00;;;12.60;99.90;;;;;;5076563;28;20042;-77
2022/10/08 00:34:01;;;;;;;1.55;0.10;;;12.60;99.90;;;;;;5076695;28;20027;-76
2022/10/08 00:36:30;;;;;;;2.92;0.17;;;12.70;99.90;;;;;;5094671;28;20533;-77
2022/10/08 00:38:57;;;;;;;2.13;0.00;;;12.60;99.90;;;;;;5094665;28;20055;-76
2022/10/08 00:41:26;;;;;;;0.65;0.00;;;12.60;99.90;;;;;;5094559;28;20021;-76
2022/10/08 00:43:58;;;;;;;0.70;0.13;;;12.60;99.90;;;;;;5094589;28;20020;-77
2022/10/08 00:46:33;;;;;;;0.95;0.00;;;12.70;99.90;;;;;;5076236;28;20077;-77
2022/10/08 00:49:12;;;;;;;3.00;0.52;;;12.60;99.90;;;;;;5094403;28;20549;-76
2022/10/08 00:51:49;;;;;;;0.32;0.00;;;12.70;99.90;;;;;;5076087;28;20020;-77
2022/10/08 00:54:16;;;;;;;3.58;0.38;;;12.70;99.90;;;;;;5094472;28;20024;-77
2022/10/08 00:56:43;;;;;;;2.25;0.00;;;12.70;99.90;;;;;;5094260;28;20073;-77
2022/10/08 00:59:10;;;;;;;4.43;0.00;;;12.60;99.90;;;;;;5094243;28;20024;-77
2022/10/08 01:01:36;;;;;;;2.30;0.00;;;12.70;99.90;;;;;;5093963;28;20031;-77
2022/10/08 01:04:04;;;;;;;4.05;0.10;;;12.60;99.90;;;;;;5093791;28;20036;-76
2022/10/08 01:06:46;;;;;;;4.78;0.00;;;12.60;99.90;;;;;;5075938;28;20027;-76
2022/10/08 01:09:15;;;;;;;3.67;0.00;;;12.60;99.90;;;;;;5075882;28;20027;-76
2022/10/08 01:11:57;;;;;;;3.60;0.00;;;12.70;99.90;;;;;;5094000;28;20027;-76
2022/10/08 01:14:49;;;;;;;2.47;0.00;;;12.60;99.90;;;;;;5094091;28;20028;-76
2022/10/08 01:17:47;;;;;;;4.00;0.00;;;12.70;99.90;;;;;;5094281;28;20496;-76
2022/10/08 01:20:39;;;;;;;1.90;0.00;;;12.70;99.90;;;;;;5093394;28;20036;-76
2022/10/08 01:23:43;;;;;;;0.63;0.00;;;12.70;99.90;;;;;;5094206;28;20020;-76
2022/10/08 01:26:46;;;;;;;5.18;0.38;;;12.70;99.90;;;;;;5093844;28;20480;-76
2022/10/08 01:29:21;;;;;;;0.10;0.00;;;12.70;99.90;;;;;;5093701;28;20042;-77
2022/10/08 01:31:52;;;;;;;2.58;0.32;;;12.70;99.90;;;;;;5093820;28;20384;-76
2022/10/08 01:34:56;;;;;;;1.95;0.20;;;12.70;99.90;;;;;;5093722;28;20024;-76
2022/10/08 01:37:28;;;;;;;4.07;0.32;;;12.70;99.90;;;;;;4992226;28;20034;-76
2022/10/08 01:39:58;;;;;;;1.95;0.00;;;12.70;99.90;;;;;;5079318;28;20098;-76
2022/10/08 01:42:26;;;;;;;0.70;0.10;;;12.70;99.90;;;;;;5093744;28;20507;-76
2022/10/08 01:45:00;;;;;;;1.30;0.03;;;12.70;99.90;;;;;;5075631;28;20123;-77
2022/10/08 01:47:27;;;;;;;4.53;0.00;;;12.70;99.90;;;;;;5093533;28;20066;-77
2022/10/08 01:50:14;;;;;;;3.95;0.45;;;12.70;99.90;;;;;;5075331;28;20415;-76
2022/10/08 01:52:57;;;;;;;4.05;0.15;;;12.60;99.90;;;;;;5093568;28;20031;-76
2022/10/08 01:55:30;;;;;;;2.85;0.10;;;12.60;99.90;;;;;;5093704;28;20107;-77
2022/10/08 01:58:14;;;;;;;4.45;0.57;;;12.50;99.90;;;;;;5075429;28;20024;-76
2022/10/08 02:00:41;;;;;;;1.67;0.22;;;12.50;99.90;;;;;;5093509;28;20105;-76
2022/10/08 02:03:10;;;;;;;5.65;0.20;;;12.40;99.90;;;;;;5093273;28;20032;-77
2022/10/08 02:05:40;;;;;;;3.47;0.30;;;12.40;99.90;;;;;;5093190;28;20024;-76
2022/10/08 02:08:06;;;;;;;3.33;0.50;;;12.30;99.90;;;;;;5075245;28;20081;-76
2022/10/08 02:10:31;;;;;;;2.15;0.30;;;12.30;99.90;;;;;;5093235;28;20020;-76
2022/10/08 02:12:58;;;;;;;6.25;0.50;;;12.30;99.90;;;;;;5093300;28;20091;-76
2022/10/08 02:15:30;;;;;;;3.92;0.57;;;12.20;99.90;;;;;;5093274;28;20020;-76
2022/10/08 02:18:08;;;;;;;3.65;0.30;;;12.20;99.90;;;;;;5097493;28;20081;-76
2022/10/08 02:20:43;;;;;;;3.22;0.38;;;12.20;99.90;;;;;;5097499;28;20493;-76
2022/10/08 02:23:20;;;;;;;2.13;0.57;;;12.10;99.90;;;;;;5097805;28;20407;-76
2022/10/08 02:25:56;;;;;;;6.80;0.32;;;12.10;99.90;;;;;;5079153;28;20529;-76
2022/10/08 02:28:42;;;;;;;1.58;0.10;;;12.10;99.90;;;;;;5079028;28;20020;-76
2022/10/08 02:31:10;;;;;;;9.65;1.20;;;12.00;99.90;;;;;;5079075;28;20651;-76
2022/10/08 02:33:43;;;;;;;4.78;1.00;;;11.90;99.90;;;;;;5097049;28;20021;-76
2022/10/08 02:36:12;;;;;;;5.07;0.77;;;11.90;99.90;;;;;;5097306;28;20043;-76
2022/10/08 02:38:58;;;;;;;;;;;11.90;99.90;;;;;;5079194;28;20547;-76
2022/10/08 02:41:31;;;;;;;;;;;11.90;99.90;;;;;;5079263;28;20372;-77
2022/10/08 02:43:58;;;;;;;;;;;12.00;99.90;;;;;;5097942;28;19911;-76
2022/10/08 02:46:26;;;;;;;;;;;11.90;99.90;;;;;;5097577;28;20428;-76
2022/10/08 02:49:04;;;;;;;;;;;12.00;99.90;;;;;;5097453;28;20361;-77
2022/10/08 02:51:30;;;;;;;;;;;11.90;99.90;;;;;;5097273;28;19904;-76
2022/10/08 02:53:57;;;;;;;;;;;11.90;99.90;;;;;;5079076;28;19986;-76
2022/10/08 02:56:25;;;;;;;;;;;11.90;99.90;;;;;;5097197;28;20364;-77
2022/10/08 02:58:51;;;;;;;;;;;11.90;99.90;;;;;;5079118;28;19970;-76
2022/10/08 03:01:27;;;;;;;;;;;11.90;99.90;;;;;;5097318;28;19904;-76
2022/10/08 03:04:13;;;;;;;;;;;11.90;99.90;;;;;;5079021;28;19912;-76
2022/10/08 03:06:39;;;;;;;;;;;11.80;99.90;;;;;;5078451;28;19904;-76
2022/10/08 03:09:06;;;;;;;;;;;11.80;99.90;;;;;;5097051;28;19912;-76
2022/10/08 03:11:32;;;;;;;;;;;11.70;99.90;;;;;;5096832;28;19904;-77
2022/10/08 03:13:58;;;;;;;;;;;11.80;99.90;;;;;;5097009;28;19904;-76
2022/10/08 03:16:34;;;;;;;;;;;11.70;99.90;;;;;;5097217;28;19934;-76
2022/10/08 03:19:01;;;;;;;;;;;11.70;99.90;;;;;;5096939;28;19951;-77
2022/10/08 03:21:27;;;;;;;;;;;11.60;99.90;;;;;;5096574;28;19910;-76
2022/10/08 03:23:52;;;;;;;;;;;11.60;99.90;;;;;;5078636;28;19986;-76
2022/10/08 03:26:18;;;;;;;;;;;11.70;99.90;;;;;;5096688;28;19904;-76
2022/10/08 03:28:43;;;;;;;;;;;11.60;99.90;;;;;;5096198;28;19974;-76
2022/10/08 03:31:09;;;;;;;;;;;11.60;99.90;;;;;;5078221;28;19950;-77
2022/10/08 03:33:34;;;;;;;;;;;11.60;99.90;;;;;;5096604;28;19904;-77
2022/10/08 03:36:00;;;;;;;;;;;11.60;99.90;;;;;;5096522;28;20364;-76
2022/10/08 03:38:26;;;;;;;;;;;11.60;99.90;;;;;;5096351;28;19904;-77
2022/10/08 03:40:55;;;;;;;;;;;11.60;99.90;;;;;;5096587;28;19904;-76
2022/10/08 03:43:21;;;;;;;;;;;11.60;99.90;;;;;;5078155;28;19905;-76
2022/10/08 03:45:53;;;;;;;;;;;12.00;99.90;;;;;;5077962;28;19929;-76
2022/10/08 03:48:19;;;;;;;;;;;11.60;99.90;;;;;;5077783;28;19912;-77
2022/10/08 03:50:54;;;;;;;;;;;11.50;99.90;;;;;;5096028;28;19911;-76
2022/10/08 03:53:20;;;;;;;;;;;11.50;99.90;;;;;;5096005;28;19912;-76
2022/10/08 03:55:45;;;;;;;;;;;11.50;99.90;;;;;;5096415;28;19999;-76
2022/10/08 03:58:11;;;;;;;;;;;11.50;99.90;;;;;;5096400;28;20328;-77
2022/10/08 04:00:37;;;;;;;;;;;11.40;99.90;;;;;;5095760;28;19939;-76
2022/10/08 04:03:02;;;;;;;;;;;11.30;99.90;;;;;;5095665;28;20006;-76
2022/10/08 04:05:28;;;;;;;;;;;11.40;99.90;;;;;;5096372;28;19911;-76
2022/10/08 04:07:53;;;;;;;;;;;11.30;99.90;;;;;;5095581;28;19919;-76
2022/10/08 04:10:19;;;;;;;;;;;11.30;99.90;;;;;;5077351;28;19904;-76
2022/10/08 04:12:44;;;;;;;;;;;11.20;99.90;;;;;;5095609;28;19948;-76
2022/10/08 04:15:09;;;;;;;;;;;11.20;99.90;;;;;;5095442;28;19904;-76
2022/10/08 04:17:35;;;;;;;;;;;11.20;99.90;;;;;;5077248;28;19911;-77
2022/10/08 04:20:00;;;;;;;;;;;11.20;99.90;;;;;;5095933;28;19904;-76
2022/10/08 04:22:26;;;;;;;;;;;11.10;99.90;;;;;;5077233;28;19904;-76
2022/10/08 04:24:51;;;;;;;;;;;11.00;99.90;;;;;;5095622;28;19930;-76
2022/10/08 04:27:17;;;;;;;;;;;11.00;99.90;;;;;;5077262;28;19904;-76
2022/10/08 04:29:42;;;;;;;;;;;11.00;99.90;;;;;;5095234;28;19907;-76
2022/10/08 04:32:08;;;;;;;;;;;11.00;99.90;;;;;;5076887;28;19904;-76
2022/10/08 04:34:33;;;;;;;;;;;11.00;99.90;;;;;;5095119;28;19907;-76
2022/10/08 04:36:59;;;;;;;;;;;11.00;99.90;;;;;;5095601;28;19910;-77
2022/10/08 04:39:24;;;;;;;;;;;10.90;99.90;;;;;;5094253;28;19912;-76
2022/10/08 04:41:50;;;;;;;;;;;11.00;99.90;;;;;;5094924;28;19915;-77
2022/10/08 04:44:15;;;;;;;;;;;11.00;99.90;;;;;;5094846;28;19905;-76
2022/10/08 04:46:41;;;;;;;;;;;11.00;99.90;;;;;;5095610;28;19908;-76
2022/10/08 04:49:07;;;;;;;;;;;11.00;99.90;;;;;;5094979;28;20364;-76
2022/10/08 04:51:33;;;;;;;;;;;11.00;99.90;;;;;;5076881;28;19911;-76
2022/10/08 04:54:00;;;;;;;;;;;11.00;99.90;;;;;;5076620;28;19904;-77
2022/10/08 04:56:27;;;;;;;;;;;11.00;99.90;;;;;;5076418;28;19994;-77
2022/10/08 04:58:54;;;;;;;;;;;10.90;99.90;;;;;;5094593;28;19930;-76
2022/10/08 05:01:19;;;;;;;;;;;11.00;99.90;;;;;;5094456;28;19904;-75
2022/10/08 05:03:46;;;;;;;;;;;11.00;99.90;;;;;;5076149;28;19925;-75
2022/10/08 05:06:13;;;;;;;;;;;11.00;99.90;;;;;;5094366;28;19904;-75
2022/10/08 05:08:39;;;;;;;;;;;10.90;99.90;;;;;;5076034;28;19908;-74
2022/10/08 05:11:05;;;;;;;;;;;10.90;99.90;;;;;;5076152;28;19904;-75
2022/10/08 05:13:30;;;;;;;;;;;10.80;99.90;;;;;;5094200;28;20325;-75
2022/10/08 05:15:56;;;;;;;;;;;10.90;99.90;;;;;;5094182;28;19911;-74
2022/10/08 05:18:21;;;;;;;;;;;10.80;99.90;;;;;;5094226;28;19979;-75
2022/10/08 05:20:47;;;;;;;;;;;10.80;99.90;;;;;;5076020;28;19992;-75
2022/10/08 05:23:12;;;;;;;;;;;10.70;99.90;;;;;;5076053;28;19904;-75
2022/10/08 05:25:38;;;;;;;;;;;10.60;99.90;;;;;;5094151;28;19904;-74
2022/10/08 05:28:03;;;;;;;;;;;10.50;99.90;;;;;;5093992;28;20014;-74
2022/10/08 05:30:29;;;;;;;;;;;10.50;99.90;;;;;;5075798;28;19908;-75
2022/10/08 05:32:54;;;;;;;;;;;10.40;99.90;;;;;;5094137;28;19998;-75
2022/10/08 05:35:20;;;;;;;;;;;10.40;99.90;;;;;;5094068;28;19904;-75
2022/10/08 05:37:45;;;;;;;;;;;10.40;99.90;;;;;;5075723;28;19904;-75
2022/10/08 05:40:11;;;;;;;;;;;10.30;99.90;;;;;;5093866;28;19908;-75
2022/10/08 05:42:37;;;;;;;;;;;10.30;99.90;;;;;;5093801;28;19994;-75
2022/10/08 05:45:03;;;;;;;;;;;10.20;99.90;;;;;;5094388;28;19904;-75
2022/10/08 05:47:28;;;;;;;;;;;10.20;99.90;;;;;;5093719;28;19936;-75
2022/10/08 05:49:54;;;;;;;;;;;10.20;99.90;;;;;;5075340;28;19912;-74
2022/10/08 05:52:19;;;;;;;;;;;10.20;99.90;;;;;;5076200;28;19961;-75
2022/10/08 05:54:44;;;;;;;;;;;10.10;99.90;;;;;;5094319;28;19904;-75
2022/10/08 05:57:10;;;;;;;;;;;10.10;99.90;;;;;;5075601;28;19954;-74
2022/10/08 05:59:35;;;;;;;;;;;10.00;99.90;;;;;;5093660;28;19904;-74
2022/10/08 06:02:01;;;;;;;;;;;10.00;99.90;;;;;;5093989;28;19908;-74
2022/10/08 06:04:26;;;;;;;;;;;10.00;99.90;;;;;;5093718;28;20360;-75
2022/10/08 06:06:52;;;;;;;;;;;10.00;99.90;;;;;;5075537;28;19911;-75
2022/10/08 06:09:18;;;;;;;;;;;9.90;99.90;;;;;;5075439;28;19937;-74
2022/10/08 06:11:44;;;;;;;;;;;9.90;99.90;;;;;;5093341;28;19908;-75
2022/10/08 06:14:10;;;;;;;;;;;9.90;99.90;;;;;;5093445;28;19904;-75
2022/10/08 06:16:36;;;;;;;;;;;10.00;99.90;;;;;;5094074;28;19982;-74
2022/10/08 06:19:02;;;;;;;;;;;10.10;99.90;;;;;;5075495;28;19974;-74
2022/10/08 06:21:28;;;;;;;;;;;10.20;99.90;;;;;;5093368;28;19927;-74
2022/10/08 06:23:54;;;;;;;;;;;10.20;99.90;;;;;;5093513;28;19904;-74
2022/10/08 06:26:21;;;;;;;;;;;10.20;99.90;;;;;;5093451;28;19904;-74
2022/10/08 06:28:46;;;;;;;;;;;10.20;99.90;;;;;;5075192;28;20284;-74
2022/10/08 06:31:12;;;;;;;;;;;10.20;99.90;;;;;;5093753;28;19904;-74
2022/10/08 06:33:38;;;;;;;;;;;10.20;99.90;;;;;;5075169;28;19911;-74
2022/10/08 06:36:03;;;;;;;;;;;10.30;99.90;;;;;;5075213;28;19968;-74
2022/10/08 06:38:29;;;;;;;;;;;10.40;99.90;;;;;;5093330;28;19999;-74
2022/10/08 06:40:57;;;;;;;;;;;10.40;99.90;;;;;;5093131;28;19911;-74
2022/10/08 06:43:23;;;;;;;;;;;10.40;99.90;;;;;;5074913;28;19904;-74
2022/10/08 06:45:48;;;;;;;;;;;10.50;99.90;;;;;;5074992;28;20372;-74
2022/10/08 06:48:14;;;;;;;;;;;10.60;99.90;;;;;;5093072;28;20315;-74
2022/10/08 06:50:40;;;;;;;;;;;10.70;99.90;;;;;;5093085;28;19904;-75
2022/10/08 06:53:07;;;;;;;;;;;10.80;99.90;;;;;;5074847;28;19908;-74
2022/10/08 06:55:33;;;;;;;;;;;10.80;99.90;;;;;;5093072;28;20288;-75
2022/10/08 06:57:59;;;;;;;;;;;10.90;99.90;;;;;;5092981;28;19904;-75
2022/10/08 07:00:24;;;;;;;;;;;11.00;99.90;;;;;;5074840;28;20427;-74
2022/10/08 07:02:50;;;;;;;;;;;11.10;99.90;;;;;;5094804;28;19922;-74
2022/10/08 07:05:16;;;;;;;;;;;11.20;99.90;;;;;;5096694;28;20368;-75
2022/10/08 07:07:41;;;;;;;;;;;11.30;99.90;;;;;;5096593;28;19926;-75
2022/10/08 07:10:07;;;;;;;;;;;11.30;99.90;;;;;;5096496;28;19904;-74
2022/10/08 07:12:32;;;;;;;;;;;11.40;99.90;;;;;;5096574;28;19955;-75
2022/10/08 07:14:58;;;;;;;;;;;11.40;99.90;;;;;;5096521;28;20280;-74
2022/10/08 07:17:27;;;;;;;;;;;11.50;99.90;;;;;;5096491;28;20065;-75
2022/10/08 07:19:53;;;;;;;;;;;11.60;99.90;;;;;;5079341;28;19911;-75
2022/10/08 07:22:18;;;;;;;;;;;11.70;99.90;;;;;;5096358;28;19904;-75
2022/10/08 07:24:44;;;;;;;;;;;11.80;99.90;;;;;;5096412;28;19908;-75
2022/10/08 07:27:09;;;;;;;;;;;11.90;99.90;;;;;;5096278;28;19957;-75
2022/10/08 07:29:35;;;;;;;;;;;12.00;99.90;;;;;;5096776;28;19908;-75
2022/10/08 07:32:00;;;;;;;;;;;12.10;99.90;;;;;;5078080;28;19994;-74
2022/10/08 07:34:26;;;;;;;;;;;12.20;99.90;;;;;;5096146;28;19916;-76
2022/10/08 07:36:51;;;;;;;;;;;12.30;99.90;;;;;;5078364;28;19904;-76
2022/10/08 07:39:18;;;;;;;;;;;12.50;99.90;;;;;;5096849;28;20280;-77
2022/10/08 07:41:44;;;;;;;;;;;12.40;99.90;;;;;;5096088;28;20388;-76
2022/10/08 07:44:10;;;;;;;;;;;12.50;99.90;;;;;;5077817;28;20391;-77
2022/10/08 07:46:36;;;;;;;;;;;12.60;99.90;;;;;;5096108;28;20419;-77
2022/10/08 07:49:03;;;;;;;;;;;12.60;99.90;;;;;;5095879;28;19908;-77
2022/10/08 07:51:30;;;;;;;;;;;12.70;99.90;;;;;;5096011;28;19904;-77
2022/10/08 07:53:56;;;;;;;;;;;12.70;99.90;;;;;;5077737;28;20287;-77
2022/10/08 07:56:21;;;;;;;;;;;12.80;99.90;;;;;;5077866;28;19963;-76
2022/10/08 07:58:48;;;;;;;;;;;12.90;99.90;;;;;;5095782;28;19942;-76
2022/10/08 08:01:17;;;;;;;;;;;13.00;99.90;;;;;;5099498;22;19997;-75
2022/10/08 08:03:54;;;;;;;;;;;15.10;99.90;;;;;;5075251;28;19925;-76
2022/10/08 08:06:20;;;;;;;;;;;13.20;99.90;;;;;;5075293;28;19905;-75
2022/10/08 08:08:50;;;;;;;;;;;13.30;99.90;;;;;;5057077;28;19912;-76
2022/10/08 08:11:42;;;;;;;;;;;13.40;99.90;;;;;;5075371;28;19908;-74
2022/10/08 08:14:07;;;;;;;;;;;13.50;99.90;;;;;;5051842;28;20364;-76
2022/10/08 08:16:33;;;;;;;;;;;13.50;99.90;;;;;;5075662;28;19905;-76
2022/10/08 08:18:59;;;;;;;;;;;13.60;99.90;;;;;;5075037;28;20432;-76
2022/10/08 08:21:28;;;;;;;;;;;13.70;99.90;;;;;;5074923;28;19908;-76
2022/10/08 08:23:55;;;;;;;;;;;13.80;99.90;;;;;;5074977;28;20367;-76
2022/10/08 08:26:22;;;;;;;;;;;14.50;99.90;;;;;;5057532;28;19905;-76
2022/10/08 08:28:52;;;;;;;;;;;14.10;99.90;;;;;;5056986;28;19911;-77
2022/10/08 08:31:19;;;;;;;;;;;14.30;99.90;;;;;;5075017;28;20258;-76
2022/10/08 08:33:49;;;;;;;;;;;14.60;99.90;;;;;;5074730;28;19927;-76
2022/10/08 08:36:16;;;;;;;;;;;14.80;99.90;;;;;;5074610;28;20382;-76
2022/10/08 08:38:41;;;;;;;;;;;14.80;99.90;;;;;;5074575;28;20006;-77
2022/10/08 08:41:14;;;;;;;;;;;14.80;99.90;;;;;;5074855;28;19950;-77
2022/10/08 08:43:39;;;;;;;;;;;14.60;99.90;;;;;;5074670;28;19910;-77
2022/10/08 08:46:14;;;;;;;;;;;14.50;99.90;;;;;;5056500;28;20219;-77
2022/10/08 08:48:42;;;;;;;;;;;14.40;99.90;;;;;;5056770;28;19915;-76
2022/10/08 08:51:07;;;;;;;;;;;14.40;99.90;;;;;;5074512;28;19911;-76
2022/10/08 08:53:33;;;;;;;;;;;14.40;99.90;;;;;;5056407;28;19905;-76
2022/10/08 08:56:01;;;;;;;;;;;14.50;99.90;;;;;;5056419;28;19991;-73
2022/10/08 08:58:36;;;;;;;;;;;14.60;99.90;;;;;;5074459;28;20046;-77
2022/10/08 09:01:16;;;;;;;;;;;14.60;99.90;;;;;;5074109;28;19952;-74
2022/10/08 09:03:45;;;;;;;;;;;14.60;99.90;;;;;;5074184;28;19904;-73
2022/10/08 09:06:16;;;;;;;;;;;14.60;99.90;;;;;;5074431;28;19904;-76
2022/10/08 09:08:46;;;;;;;;;;;14.60;99.90;;;;;;5074094;28;19909;-73
2022/10/08 09:11:12;;;;;;;;;;;14.80;99.90;;;;;;5056300;28;20379;-74
2022/10/08 09:13:47;;;;;;;;;;;14.70;99.90;;;;;;5056369;28;19904;-74
2022/10/08 09:16:13;;;;;;;;;;;14.90;99.90;;;;;;5074203;28;19912;-76
2022/10/08 09:18:43;;;;;;;;;;;15.10;99.90;;;;;;5074345;28;19906;-74
2022/10/08 09:21:09;;;;;;;;;;;15.30;99.90;;;;;;5056193;28;19912;-77
2022/10/08 09:23:36;;;;;;;;;;;15.50;99.90;;;;;;5074101;28;19908;-76
2022/10/08 09:26:09;;;;;;;;;;;15.50;99.90;;;;;;5073313;28;19904;-76
2022/10/08 09:28:40;;;;;;;;;;;15.50;99.90;;;;;;5039321;28;19958;-76
2022/10/08 09:31:15;;;;;;;;;;;15.50;99.90;;;;;;5055990;28;19958;-73
2022/10/08 09:33:41;;;;;;;;;;;15.30;99.90;;;;;;5073779;28;20353;-76
2022/10/08 09:36:08;;;;;;;;;;;15.20;99.90;;;;;;5074909;28;19954;-74
2022/10/08 09:38:35;;;;;;;;;;;15.00;99.90;;;;;;5055675;28;19910;-74
2022/10/08 09:41:05;;;;;;;;;;;14.70;99.90;;;;;;5073608;28;19935;-73
2022/10/08 09:43:32;;;;;;;;;;;14.50;99.90;;;;;;5073653;28;19905;-73
2022/10/08 09:45:58;;;;;;;;;;;14.30;99.90;;;;;;5073833;28;20021;-73
2022/10/08 09:48:25;;;;;;;;;;;14.20;99.90;;;;;;5073586;28;20408;-73
2022/10/08 09:50:58;;;;;;;;;;;14.30;99.90;;;;;;5055647;28;19908;-74
2022/10/08 09:53:44;;;;;;;;;;;14.50;99.90;;;;;;5073538;28;20383;-73
2022/10/08 09:56:11;;;;;;;;;;;14.70;99.90;;;;;;5073289;28;19911;-73
2022/10/08 09:58:57;;;;;;;;;;;15.10;99.90;;;;;;5055379;28;19905;-73
2022/10/08 10:01:24;;;;;;;;;;;15.30;99.90;;;;;;5088391;22;20663;-74
2022/10/08 10:04:00;;;;;;;;;;;15.60;99.90;;;;;;5055635;28;19916;-73
2022/10/08 10:06:26;;;;;;;;;;;15.90;99.90;;;;;;5073349;28;20319;-73
2022/10/08 10:09:09;;;;;;;;;;;16.30;99.90;;;;;;5073744;28;19920;-76
2022/10/08 10:11:49;;;;;;;;;;;16.70;99.90;;;;;;5055289;28;19904;-76
2022/10/08 10:14:18;;;;;;;;;;;16.70;99.90;;;;;;5055431;28;20015;-75
2022/10/08 10:16:45;;;;;;;;;;;16.50;99.90;;;;;;5055376;28;19999;-73
2022/10/08 10:19:19;;;;;;;;;;;16.30;99.90;;;;;;5055462;28;20428;-76
2022/10/08 10:21:49;;;;;;;;;;;16.10;99.90;;;;;;5073240;28;19904;-73
2022/10/08 10:24:21;;;;;;;;;;;16.00;99.90;;;;;;5073223;28;19927;-73
2022/10/08 10:26:49;;;;;;;;;;;16.00;99.90;;;;;;5073838;28;19995;-74
2022/10/08 10:29:21;;;;;;;;;;;16.00;99.90;;;;;;5073115;28;20330;-75
2022/10/08 10:31:47;;;;;;;;;;;15.80;99.90;;;;;;5073396;28;19904;-74
2022/10/08 10:34:15;;;;;;;;;;;15.60;99.90;;;;;;5073582;28;19904;-77
2022/10/08 10:36:55;;;;;;;;;;;15.60;99.90;;;;;;5055506;28;19905;-76
2022/10/08 10:39:39;;;;;;;;;;;15.60;99.90;;;;;;5059149;28;19904;-76
2022/10/08 10:42:15;;;;;;;;;;;16.70;99.90;;;;;;5077028;28;19912;-76
2022/10/08 10:44:47;;;;;;;;;;;16.10;99.90;;;;;;5077158;28;19904;-77
2022/10/08 10:47:13;;;;;;;;;;;16.40;99.90;;;;;;5076987;28;19912;-76
2022/10/08 10:49:40;;;;;;;;;;;16.50;99.90;;;;;;5058702;28;20319;-76
2022/10/08 10:52:32;;;;;;;;;;;16.40;99.90;;;;;;5076904;28;19994;-76
2022/10/08 10:54:58;;;;;;;;;;;16.40;99.90;;;;;;5077295;28;19916;-75
2022/10/08 10:57:29;;;;;;;;;;;16.40;99.90;;;;;;5077230;28;19911;-76
2022/10/08 11:00:01;;;;;;;;;;;16.60;99.90;;;;;;5076572;28;19912;-76
2022/10/08 11:02:32;;;;;;;;;;;17.00;99.90;;;;;;5058602;28;20368;-76
2022/10/08 11:04:57;;;;;;;;;;;16.60;99.90;;;;;;5091517;22;19974;-75
2022/10/08 11:07:42;;;;;;;;;;;16.30;99.90;;;;;;5058678;28;19920;-75
2022/10/08 11:10:43;;;;;;;;;;;16.10;99.90;;;;;;5058462;28;19959;-75
2022/10/08 11:13:25;;;;;;;;;;;15.90;99.90;;;;;;5034287;28;19913;-75
2022/10/08 11:16:09;;;;;;;;;;;15.50;99.90;;;;;;5072090;28;19908;-75
2022/10/08 11:18:34;;;;;;;;;;;15.20;99.90;;;;;;5058507;28;19915;-75
2022/10/08 11:21:03;;;;;;;;;;;15.00;99.90;;;;;;5075843;28;19905;-75
2022/10/08 11:23:42;;;;;;;;;;;14.90;99.90;;;;;;5075010;28;19948;-75
2022/10/08 11:26:17;;;;;;;;;;;14.80;99.90;;;;;;5075370;28;19911;-75
2022/10/08 11:28:53;;;;;;;;;;;14.70;99.90;;;;;;5074011;28;19912;-74
2022/10/08 11:31:37;;;;;;;;;;;14.80;99.90;;;;;;5075925;28;19951;-74
2022/10/08 11:34:03;;;;;;;;;;;14.80;99.90;;;;;;5075952;28;19946;-75
2022/10/08 11:36:37;;;;;;;;;;;15.10;99.90;;;;;;5075944;28;19904;-75
2022/10/08 11:39:17;;;;;;;;;;;15.40;99.90;;;;;;5076003;28;20420;-74
2022/10/08 11:41:47;;;;;;;;;;;15.60;99.90;;;;;;5057309;28;19974;-76
2022/10/08 11:44:12;;;;;;;;;;;15.90;99.90;;;;;;5058196;28;19930;-74
2022/10/08 11:46:38;;;;;;;;;;;16.40;99.90;;;;;;5075816;28;19912;-74
2022/10/08 11:49:12;;;;;;;;;;;16.90;99.90;;;;;;5075272;28;19931;-73
2022/10/08 11:51:49;;;;;;;;;;;17.40;99.90;;;;;;5057661;28;19912;-73
2022/10/08 11:54:33;;;;;;;;;;;17.80;99.90;;;;;;5075783;28;19908;-74
2022/10/08 11:57:37;;;;;;;;;;;17.80;99.90;;;;;;5057730;28;19906;-74
2022/10/08 12:00:27;;;;;;;;;;;17.40;99.90;;;;;;5017013;28;19905;-74
2022/10/08 12:02:53;;;;;;;;;;;17.10;99.90;;;;;;5016884;28;19905;-74
2022/10/08 12:05:18;;;;;;;;;;;17.20;99.90;;;;;;5059619;28;20412;-74
2022/10/08 12:07:49;;;;;;;;;;;17.10;99.90;;;;;;5057452;28;19954;-74
2022/10/08 12:10:17;;;;;;;;;;;17.30;99.90;;;;;;5057257;28;19999;-74
2022/10/08 12:12:49;;;;;;;;;;;17.20;99.90;;;;;;5057079;28;19911;-75
2022/10/08 12:15:23;;;;;;;;;;;17.10;99.90;;;;;;5057460;28;19915;-75
2022/10/08 12:17:55;;;;;;;;;;;17.40;99.90;;;;;;5075033;28;19930;-75
2022/10/08 12:20:25;;;;;;;;;;;17.70;99.90;;;;;;5056999;28;19967;-74
2022/10/08 12:22:59;;;;;;;;;;;18.00;99.90;;;;;;5075018;28;19947;-75
2022/10/08 12:25:29;;;;;;;;;;;18.00;99.90;;;;;;5075049;28;20365;-74
2022/10/08 12:28:15;;;;;;;;;;;18.00;99.90;;;;;;5074746;28;19909;-75
2022/10/08 12:30:50;;;;;;;;;;;17.90;99.90;;;;;;5074508;28;19908;-75
2022/10/08 12:33:16;;;;;;;;;;;17.90;99.90;;;;;;5056812;28;20433;-75
2022/10/08 12:36:01;;;;;;;;;;;18.00;99.90;;;;;;5056780;28;19904;-74
2022/10/08 12:38:49;;;;;;;;;;;18.10;99.90;;;;;;5074762;28;20303;-74
2022/10/08 12:41:23;;;;;;;;;;;17.90;99.90;;;;;;5056832;28;20421;-74
2022/10/08 12:43:56;;;;;;;;;;;17.60;99.90;;;;;;5074934;28;19905;-74
2022/10/08 12:46:47;;;;;;;;;;;17.60;99.90;;;;;;5056737;28;19908;-74
2022/10/08 12:49:15;;;;;;;;;;;17.90;99.90;;;;;;5074610;28;20003;-74
2022/10/08 12:51:56;;;;;;;;;;;18.00;99.90;;;;;;5075126;28;19904;-75
2022/10/08 12:54:23;;;;;;;;;;;18.20;99.90;;;;;;5056545;28;19904;-73
2022/10/08 12:56:49;;;;;;;;;;;18.70;99.90;;;;;;5056468;28;19904;-73
2022/10/08 12:59:16;;;;;;;;;;;19.00;99.90;;;;;;5074030;28;19935;-74
2022/10/08 13:01:42;;;;;;;;;;;19.40;99.90;;;;;;5074580;28;19951;-75
2022/10/08 13:04:18;;;;;;;;;;;19.40;99.10;;;;;;5074284;28;19912;-75
2022/10/08 13:06:44;;;;;;;;;;;19.20;96.10;;;;;;5074786;28;20276;-75
2022/10/08 13:09:16;;;;;;;;;;;19.10;96.80;;;;;;5074164;28;19908;-74
2022/10/08 13:11:42;;;;;;;;;;;19.10;97.20;;;;;;5074021;28;19904;-75
2022/10/08 13:14:20;;;;;;;;;;;19.20;98.60;;;;;;5074117;28;19905;-75
2022/10/08 13:16:46;;;;;;;;;;;19.30;97.30;;;;;;5074656;28;19930;-75
2022/10/08 13:19:16;;;;;;;;;;;19.30;95.40;;;;;;5056093;28;19904;-74
2022/10/08 13:21:52;;;;;;;;;;;19.30;95.10;;;;;;5056031;28;19927;-74
2022/10/08 13:24:17;;;;;;;;;;;19.40;94.80;;;;;;5073969;28;19904;-74
2022/10/08 13:26:43;;;;;;;;;;;19.60;95.10;;;;;;5073927;28;20000;-75
2022/10/08 13:29:35;;;;;;;;;;;19.80;96.50;;;;;;5055889;28;19908;-74
2022/10/08 13:32:03;;;;;;;;;;;20.00;95.70;;;;;;5053800;28;19908;-74
2022/10/08 13:34:30;;;;;;;;;;;20.20;94.70;;;;;;5056425;28;19904;-75
2022/10/08 13:36:57;;;;;;;;;;;20.10;92.90;;;;;;5073700;28;19905;-74
2022/10/08 13:39:28;;;;;;;;;;;20.20;93.10;;;;;;5073652;28;19931;-74
2022/10/08 13:41:54;;;;;;;;;;;20.30;93.10;;;;;;5073987;28;19911;-74
2022/10/08 13:44:20;;;;;;;;;;;20.30;93.10;;;;;;5073652;28;19963;-74
2022/10/08 13:46:45;;;;;;;;;;;20.60;92.50;;;;;;5073616;28;19905;-74
2022/10/08 13:49:19;;;;;;;;;;;20.80;92.50;;;;;;5055941;28;19908;-75
2022/10/08 13:51:44;;;;;;;;;;;21.20;93.00;;;;;;5073589;28;20026;-75
2022/10/08 13:54:10;;;;;;;;;;;21.50;92.30;;;;;;5056297;28;19904;-74
2022/10/08 13:56:35;;;;;;;;;;;21.50;86.90;;;;;;5055631;28;20349;-75
2022/10/08 13:59:01;;;;;;;;;;;21.90;90.10;;;;;;5073590;28;19904;-76
2022/10/08 14:01:26;;;;;;;;;;;22.30;89.80;;;;;;5073475;28;20348;-74
2022/10/08 14:03:52;;;;;;;;;;;22.50;85.80;;;;;;5055462;28;20277;-74
2022/10/08 14:06:17;;;;;;;;;;;22.80;86.00;;;;;;5073956;28;19954;-74
2022/10/08 14:08:42;;;;;;;;;;;22.80;79.80;;;;;;5073886;28;20343;-74
2022/10/08 14:11:08;;;;;;;;;;;22.80;84.50;;;;;;5074953;28;19954;-74
2022/10/08 14:13:34;;;;;;;;;;;22.80;84.40;;;;;;5077542;28;19912;-74
2022/10/08 14:16:00;;;;;;;;;;;23.10;83.40;;;;;;5077552;28;19912;-74